Mazy — 9HB2808 — position and weather

sailwx.info

Track history (hours):
 
Tides and Currents Weather Stations Pressure Air Temp Water Temp Dewpoint Dewpoint Depression Visibility Wind Speed Wind Dir Waves Ship Positions

Mazy

Last reported at 2014-Aug-24 08:31 UTC. Time now 2014-Sep-02 00:03 UTC.
Position N 37°53' E 023°04'.
Warning: this ship's position is 8 days out of date.

Length 39 m; draft 2.3 m.

MMSI: 229043000.

Date/timePositionNaut miles runAvg speedWind from/ knotsBaromVisibWave heightAir tempDewpointWater temp
2014-Aug-24 08:31N 37°53' E 023°04'1111.2
2014-Aug-24 07:33N 37°45' E 023°15'1211.1
2014-Aug-24 06:29N 37°37' E 023°26'1010.8
2014-Aug-24 05:33N 37°29' E 023°32'37 1.2
2014-Aug-23 00:05N 36°55' E 023°50'611.1
2014-Aug-22 23:33N 36°51' E 023°56'1111.4
2014-Aug-22 22:33N 36°45' E 024°07'1211.6
2014-Aug-22 21:33N 36°38' E 024°19'1 0.6
2014-Aug-22 20:12N 36°39' E 024°20'0 0.0
2014-Aug-22 19:24N 36°39' E 024°20'0 0.0
2014-Aug-22 18:30N 36°39' E 024°20'0 0.0
2014-Aug-22 17:24N 36°39' E 024°20'0 0.0
2014-Aug-22 16:30N 36°39' E 024°20'0 0.0
2014-Aug-22 15:18N 36°39' E 024°20'0 0.0
2014-Aug-22 14:30N 36°39' E 024°20'1 1.4
2014-Aug-22 13:33N 36°39' E 024°22'6 0.8
2014-Aug-22 06:31N 36°40' E 024°29'0 0.0
2014-Aug-22 05:31N 36°40' E 024°29'9 9.2
2014-Aug-22 04:31N 36°47' E 024°36'2 1.8
2014-Aug-22 03:22N 36°49' E 024°36'0 0.0
2014-Aug-22 02:28N 36°49' E 024°36'0 0.0
2014-Aug-22 01:28N 36°49' E 024°36'0 0.0
2014-Aug-22 00:22N 36°49' E 024°36'0 0.0
2014-Aug-21 23:28N 36°49' E 024°36'0 0.0
2014-Aug-21 22:28N 36°49' E 024°36'0 0.0
2014-Aug-21 21:28N 36°49' E 024°36'0 0.0
2014-Aug-21 20:22N 36°49' E 024°36'0 0.0
2014-Aug-21 19:28N 36°49' E 024°36'0 0.0
2014-Aug-21 18:22N 36°49' E 024°36'0 0.0
2014-Aug-21 17:16N 36°49' E 024°36'0 0.0
2014-Aug-21 16:22N 36°49' E 024°36'0 0.0
2014-Aug-21 15:28N 36°49' E 024°36'0 0.0
2014-Aug-21 14:28N 36°49' E 024°36'0 0.0
2014-Aug-21 13:28N 36°49' E 024°36'0 0.0
2014-Aug-21 12:22N 36°49' E 024°36'0 0.0
2014-Aug-21 11:22N 36°49' E 024°36'0 0.0
2014-Aug-21 10:28N 36°49' E 024°36'0 0.0
2014-Aug-21 09:33N 36°49' E 024°36'1 1.1
2014-Aug-21 08:33N 36°48' E 024°36'4 0.2
2014-Aug-20 07:09N 36°45' E 024°38'610.5
2014-Aug-20 06:33N 36°45' E 024°46'1111.4
2014-Aug-20 05:33N 36°48' E 025°00'1211.8
2014-Aug-20 04:33N 36°51' E 025°14'1211.6
2014-Aug-20 03:33N 36°53' E 025°29'4 3.3
2014-Aug-20 02:19N 36°54' E 025°34'0 0.0
2014-Aug-20 01:31N 36°54' E 025°34'0 0.0
2014-Aug-20 00:25N 36°54' E 025°34'0 0.0
2014-Aug-19 23:31N 36°54' E 025°34'0 0.0
2014-Aug-19 22:31N 36°54' E 025°34'0 0.0
2014-Aug-19 21:31N 36°54' E 025°34'0 0.0
2014-Aug-19 20:31N 36°54' E 025°34'0 0.0
2014-Aug-19 19:25N 36°54' E 025°34'0 0.0
2014-Aug-19 18:31N 36°54' E 025°34'0 0.0
2014-Aug-19 17:31N 36°54' E 025°34'0 0.0
2014-Aug-19 16:25N 36°54' E 025°34'0 0.0
2014-Aug-19 05:09N 36°54' E 025°33'710.8
2014-Aug-19 04:29N 36°55' E 025°24'13 5.8
2014-Aug-19 02:19N 36°59' E 025°09'0 0.0
2014-Aug-19 01:31N 36°59' E 025°09'0 0.0
2014-Aug-19 00:31N 36°59' E 025°09'0 0.0
2014-Aug-18 23:25N 36°59' E 025°09'0 0.0
2014-Aug-18 22:31N 36°59' E 025°09'0 0.0
2014-Aug-18 21:31N 36°59' E 025°09'0 0.0
2014-Aug-18 20:25N 36°59' E 025°09'0 0.0
2014-Aug-18 19:31N 36°59' E 025°09'0 0.0
2014-Aug-18 18:31N 36°59' E 025°09'0 0.0
2014-Aug-18 17:19N 36°59' E 025°09'0 0.0
2014-Aug-18 16:31N 36°59' E 025°09'0 0.0
2014-Aug-18 15:25N 36°59' E 025°09'0 0.0
2014-Aug-18 14:31N 36°59' E 025°09'0 0.0
2014-Aug-18 13:31N 36°59' E 025°09'0 0.0
2014-Aug-18 12:25N 36°59' E 025°09'0 0.0
2014-Aug-18 11:31N 36°59' E 025°09'0 0.0
2014-Aug-18 10:31N 36°59' E 025°09'0 0.0
2014-Aug-18 09:25N 36°59' E 025°09'0 0.0
2014-Aug-18 08:31N 36°59' E 025°09'0 0.0
2014-Aug-18 07:31N 36°59' E 025°09'31 2.3
2014-Aug-17 18:26N 37°27' E 025°26'0 0.0
2014-Aug-17 17:32N 37°27' E 025°26'0 0.0
2014-Aug-17 16:29N 37°27' E 025°26'0 0.0
2014-Aug-17 15:20N 37°27' E 025°26'0 0.0
2014-Aug-17 14:32N 37°27' E 025°26'0 0.0
2014-Aug-17 13:32N 37°27' E 025°26'0 0.0
2014-Aug-17 12:32N 37°27' E 025°26'0 0.0
2014-Aug-17 11:32N 37°27' E 025°26'0 0.0
2014-Aug-17 10:26N 37°27' E 025°26'0 0.0
2014-Aug-17 09:29N 37°27' E 025°26'5 5.8
2014-Aug-17 08:33N 37°24' E 025°20'3 3.0
2014-Aug-17 07:31N 37°27' E 025°20'0 0.0
2014-Aug-17 06:31N 37°27' E 025°20'0 0.0
2014-Aug-17 05:31N 37°27' E 025°20'0 0.0
2014-Aug-17 04:28N 37°27' E 025°20'0 0.0
2014-Aug-17 03:31N 37°27' E 025°20'0 0.0
2014-Aug-17 02:31N 37°27' E 025°20'0 0.0
2014-Aug-17 01:31N 37°27' E 025°20'0 0.0
2014-Aug-17 00:31N 37°27' E 025°20'0 0.0
2014-Aug-16 23:31N 37°27' E 025°20'0 0.0
2014-Aug-16 22:31N 37°27' E 025°20'0 0.0
2014-Aug-16 21:31N 37°27' E 025°20'0 0.0
2014-Aug-16 20:31N 37°27' E 025°20'0 0.0
2014-Aug-16 19:22N 37°27' E 025°20'0 0.0
2014-Aug-16 18:31N 37°27' E 025°20'0 0.0
2014-Aug-16 17:31N 37°27' E 025°20'0 0.0
2014-Aug-16 16:31N 37°27' E 025°20'0 0.0
2014-Aug-16 15:31N 37°27' E 025°20'0 0.0
2014-Aug-16 14:31N 37°27' E 025°20'0 0.0
2014-Aug-16 13:32N 37°27' E 025°20'1 1.3
2014-Aug-16 12:33N 37°27' E 025°18'1010.3
2014-Aug-16 11:33N 37°18' E 025°25'1611.2
2014-Aug-16 10:09N 37°06' E 025°37'610.6
2014-Aug-16 09:33N 36°59' E 025°38'3 2.6
2014-Aug-16 08:30N 36°57' E 025°37'0 0.0
2014-Aug-16 07:33N 36°57' E 025°37'0 0.0
2014-Aug-16 06:33N 36°57' E 025°37'0 0.0
2014-Aug-16 05:33N 36°57' E 025°37'0 0.0
2014-Aug-16 04:30N 36°57' E 025°37'0 0.0
2014-Aug-16 03:33N 36°57' E 025°37'0 0.0
2014-Aug-16 02:33N 36°57' E 025°37'0 0.0
2014-Aug-16 01:33N 36°57' E 025°37'0 0.0
2014-Aug-16 00:30N 36°57' E 025°37'0 0.0
2014-Aug-15 23:33N 36°57' E 025°37'0 0.0
2014-Aug-15 22:33N 36°57' E 025°37'0 0.0
2014-Aug-15 21:33N 36°57' E 025°37'0 0.0
2014-Aug-15 20:33N 36°57' E 025°37'0 0.0
2014-Aug-15 19:24N 36°57' E 025°37'0 0.0
2014-Aug-15 18:30N 36°57' E 025°37'0 0.0
2014-Aug-15 17:30N 36°57' E 025°37'0 0.0
2014-Aug-15 16:27N 36°57' E 025°37'0 0.0
2014-Aug-15 15:33N 36°57' E 025°37'0 0.0
2014-Aug-15 14:33N 36°57' E 025°37'0 0.0
2014-Aug-15 13:33N 36°57' E 025°37'0 0.0
2014-Aug-15 12:33N 36°57' E 025°37'0 0.0
2014-Aug-15 11:33N 36°57' E 025°37'0 0.0
2014-Aug-15 10:33N 36°57' E 025°37'0 0.0
2014-Aug-15 09:33N 36°57' E 025°37'3 3.2
2014-Aug-15 08:32N 36°54' E 025°40'3 3.1
2014-Aug-15 07:25N 36°51' E 025°40'0 0.0
2014-Aug-15 06:25N 36°51' E 025°40'0 0.0
2014-Aug-15 05:31N 36°51' E 025°40'0 0.0
2014-Aug-15 04:13N 36°51' E 025°40'0 0.0
2014-Aug-15 03:19N 36°51' E 025°40'0 0.0
2014-Aug-15 02:31N 36°51' E 025°40'0 0.0
2014-Aug-15 01:31N 36°51' E 025°40'0 0.0
2014-Aug-15 00:25N 36°51' E 025°40'0 0.0
2014-Aug-14 23:31N 36°51' E 025°40'0 0.0
2014-Aug-14 21:31N 36°51' E 025°40'0 0.0
2014-Aug-14 19:31N 36°51' E 025°40'0 0.0
2014-Aug-14 17:19N 36°51' E 025°40'0 0.0
2014-Aug-14 16:31N 36°51' E 025°40'0 0.0
2014-Aug-14 15:31N 36°51' E 025°40'0 0.0
2014-Aug-14 14:31N 36°51' E 025°40'0 0.0
2014-Aug-14 13:25N 36°51' E 025°40'0 0.0
2014-Aug-14 12:31N 36°51' E 025°40'0 0.0
2014-Aug-14 11:31N 36°51' E 025°40'0 0.0
2014-Aug-14 10:25N 36°51' E 025°40'0 0.0
2014-Aug-14 09:33N 36°51' E 025°40'6 6.4
2014-Aug-14 08:33N 36°54' E 025°33'  
Track history (hours):
 
Tides and Currents Weather Stations Pressure Air Temp Water Temp Dewpoint Dewpoint Depression Visibility Wind Speed Wind Dir Waves Ship Positions

Mazy

Last reported at 2014-Aug-24 08:31 UTC. Time now 2014-Sep-02 00:03 UTC.
Position N 37°53' E 023°04'.
Warning: this ship's position is 8 days out of date.

Length 39 m; draft 2.3 m.

MMSI: 229043000.

Date/timePositionNaut miles runAvg speedWind from/ knotsBaromVisibWave heightAir tempDewpointWater temp
2014-Aug-24 08:31N 37°53' E 023°04'1111.2
2014-Aug-24 07:33N 37°45' E 023°15'1211.1
2014-Aug-24 06:29N 37°37' E 023°26'1010.8
2014-Aug-24 05:33N 37°29' E 023°32'37 1.2
2014-Aug-23 00:05N 36°55' E 023°50'611.1
2014-Aug-22 23:33N 36°51' E 023°56'1111.4
2014-Aug-22 22:33N 36°45' E 024°07'1211.6
2014-Aug-22 21:33N 36°38' E 024°19'1 0.6
2014-Aug-22 20:12N 36°39' E 024°20'0 0.0
2014-Aug-22 19:24N 36°39' E 024°20'0 0.0
2014-Aug-22 18:30N 36°39' E 024°20'0 0.0
2014-Aug-22 17:24N 36°39' E 024°20'0 0.0
2014-Aug-22 16:30N 36°39' E 024°20'0 0.0
2014-Aug-22 15:18N 36°39' E 024°20'0 0.0
2014-Aug-22 14:30N 36°39' E 024°20'1 1.4
2014-Aug-22 13:33N 36°39' E 024°22'6 0.8
2014-Aug-22 06:31N 36°40' E 024°29'0 0.0
2014-Aug-22 05:31N 36°40' E 024°29'9 9.2
2014-Aug-22 04:31N 36°47' E 024°36'2 1.8
2014-Aug-22 03:22N 36°49' E 024°36'0 0.0
2014-Aug-22 02:28N 36°49' E 024°36'0 0.0
2014-Aug-22 01:28N 36°49' E 024°36'0 0.0
2014-Aug-22 00:22N 36°49' E 024°36'0 0.0
2014-Aug-21 23:28N 36°49' E 024°36'0 0.0
2014-Aug-21 22:28N 36°49' E 024°36'0 0.0
2014-Aug-21 21:28N 36°49' E 024°36'0 0.0
2014-Aug-21 20:22N 36°49' E 024°36'0 0.0
2014-Aug-21 19:28N 36°49' E 024°36'0 0.0
2014-Aug-21 18:22N 36°49' E 024°36'0 0.0
2014-Aug-21 17:16N 36°49' E 024°36'0 0.0
2014-Aug-21 16:22N 36°49' E 024°36'0 0.0
2014-Aug-21 15:28N 36°49' E 024°36'0 0.0
2014-Aug-21 14:28N 36°49' E 024°36'0 0.0
2014-Aug-21 13:28N 36°49' E 024°36'0 0.0
2014-Aug-21 12:22N 36°49' E 024°36'0 0.0
2014-Aug-21 11:22N 36°49' E 024°36'0 0.0
2014-Aug-21 10:28N 36°49' E 024°36'0 0.0
2014-Aug-21 09:33N 36°49' E 024°36'1 1.1
2014-Aug-21 08:33N 36°48' E 024°36'4 0.2
2014-Aug-20 07:09N 36°45' E 024°38'610.5
2014-Aug-20 06:33N 36°45' E 024°46'1111.4
2014-Aug-20 05:33N 36°48' E 025°00'1211.8
2014-Aug-20 04:33N 36°51' E 025°14'1211.6
2014-Aug-20 03:33N 36°53' E 025°29'4 3.3
2014-Aug-20 02:19N 36°54' E 025°34'0 0.0
2014-Aug-20 01:31N 36°54' E 025°34'0 0.0
2014-Aug-20 00:25N 36°54' E 025°34'0 0.0
2014-Aug-19 23:31N 36°54' E 025°34'0 0.0
2014-Aug-19 22:31N 36°54' E 025°34'0 0.0
2014-Aug-19 21:31N 36°54' E 025°34'0 0.0
2014-Aug-19 20:31N 36°54' E 025°34'0 0.0
2014-Aug-19 19:25N 36°54' E 025°34'0 0.0
2014-Aug-19 18:31N 36°54' E 025°34'0 0.0
2014-Aug-19 17:31N 36°54' E 025°34'0 0.0
2014-Aug-19 16:25N 36°54' E 025°34'0 0.0
2014-Aug-19 05:09N 36°54' E 025°33'710.8
2014-Aug-19 04:29N 36°55' E 025°24'13 5.8
2014-Aug-19 02:19N 36°59' E 025°09'0 0.0
2014-Aug-19 01:31N 36°59' E 025°09'0 0.0
2014-Aug-19 00:31N 36°59' E 025°09'0 0.0
2014-Aug-18 23:25N 36°59' E 025°09'0 0.0
2014-Aug-18 22:31N 36°59' E 025°09'0 0.0
2014-Aug-18 21:31N 36°59' E 025°09'0 0.0
2014-Aug-18 20:25N 36°59' E 025°09'0 0.0
2014-Aug-18 19:31N 36°59' E 025°09'0 0.0
2014-Aug-18 18:31N 36°59' E 025°09'0 0.0
2014-Aug-18 17:19N 36°59' E 025°09'0 0.0
2014-Aug-18 16:31N 36°59' E 025°09'0 0.0
2014-Aug-18 15:25N 36°59' E 025°09'0 0.0
2014-Aug-18 14:31N 36°59' E 025°09'0 0.0
2014-Aug-18 13:31N 36°59' E 025°09'0 0.0
2014-Aug-18 12:25N 36°59' E 025°09'0 0.0
2014-Aug-18 11:31N 36°59' E 025°09'0 0.0
2014-Aug-18 10:31N 36°59' E 025°09'0 0.0
2014-Aug-18 09:25N 36°59' E 025°09'0 0.0
2014-Aug-18 08:31N 36°59' E 025°09'0 0.0
2014-Aug-18 07:31N 36°59' E 025°09'31 2.3
2014-Aug-17 18:26N 37°27' E 025°26'0 0.0
2014-Aug-17 17:32N 37°27' E 025°26'0 0.0
2014-Aug-17 16:29N 37°27' E 025°26'0 0.0
2014-Aug-17 15:20N 37°27' E 025°26'0 0.0
2014-Aug-17 14:32N 37°27' E 025°26'0 0.0
2014-Aug-17 13:32N 37°27' E 025°26'0 0.0
2014-Aug-17 12:32N 37°27' E 025°26'0 0.0
2014-Aug-17 11:32N 37°27' E 025°26'0 0.0
2014-Aug-17 10:26N 37°27' E 025°26'0 0.0
2014-Aug-17 09:29N 37°27' E 025°26'5 5.8
2014-Aug-17 08:33N 37°24' E 025°20'3 3.0
2014-Aug-17 07:31N 37°27' E 025°20'0 0.0
2014-Aug-17 06:31N 37°27' E 025°20'0 0.0
2014-Aug-17 05:31N 37°27' E 025°20'0 0.0
2014-Aug-17 04:28N 37°27' E 025°20'0 0.0
2014-Aug-17 03:31N 37°27' E 025°20'0 0.0
2014-Aug-17 02:31N 37°27' E 025°20'0 0.0
2014-Aug-17 01:31N 37°27' E 025°20'0 0.0
2014-Aug-17 00:31N 37°27' E 025°20'0 0.0
2014-Aug-16 23:31N 37°27' E 025°20'0 0.0
2014-Aug-16 22:31N 37°27' E 025°20'0 0.0
2014-Aug-16 21:31N 37°27' E 025°20'0 0.0
2014-Aug-16 20:31N 37°27' E 025°20'0 0.0
2014-Aug-16 19:22N 37°27' E 025°20'0 0.0
2014-Aug-16 18:31N 37°27' E 025°20'0 0.0
2014-Aug-16 17:31N 37°27' E 025°20'0 0.0
2014-Aug-16 16:31N 37°27' E 025°20'0 0.0
2014-Aug-16 15:31N 37°27' E 025°20'0 0.0
2014-Aug-16 14:31N 37°27' E 025°20'0 0.0
2014-Aug-16 13:32N 37°27' E 025°20'1 1.3
2014-Aug-16 12:33N 37°27' E 025°18'1010.3
2014-Aug-16 11:33N 37°18' E 025°25'1611.2
2014-Aug-16 10:09N 37°06' E 025°37'610.6
2014-Aug-16 09:33N 36°59' E 025°38'3 2.6
2014-Aug-16 08:30N 36°57' E 025°37'0 0.0
2014-Aug-16 07:33N 36°57' E 025°37'0 0.0
2014-Aug-16 06:33N 36°57' E 025°37'0 0.0
2014-Aug-16 05:33N 36°57' E 025°37'0 0.0
2014-Aug-16 04:30N 36°57' E 025°37'0 0.0
2014-Aug-16 03:33N 36°57' E 025°37'0 0.0
2014-Aug-16 02:33N 36°57' E 025°37'0 0.0
2014-Aug-16 01:33N 36°57' E 025°37'0 0.0
2014-Aug-16 00:30N 36°57' E 025°37'0 0.0
2014-Aug-15 23:33N 36°57' E 025°37'0 0.0
2014-Aug-15 22:33N 36°57' E 025°37'0 0.0
2014-Aug-15 21:33N 36°57' E 025°37'0 0.0
2014-Aug-15 20:33N 36°57' E 025°37'0 0.0
2014-Aug-15 19:24N 36°57' E 025°37'0 0.0
2014-Aug-15 18:30N 36°57' E 025°37'0 0.0
2014-Aug-15 17:30N 36°57' E 025°37'0 0.0
2014-Aug-15 16:27N 36°57' E 025°37'0 0.0
2014-Aug-15 15:33N 36°57' E 025°37'0 0.0
2014-Aug-15 14:33N 36°57' E 025°37'0 0.0
2014-Aug-15 13:33N 36°57' E 025°37'0 0.0
2014-Aug-15 12:33N 36°57' E 025°37'0 0.0
2014-Aug-15 11:33N 36°57' E 025°37'0 0.0
2014-Aug-15 10:33N 36°57' E 025°37'0 0.0
2014-Aug-15 09:33N 36°57' E 025°37'3 3.2
2014-Aug-15 08:32N 36°54' E 025°40'3 3.1
2014-Aug-15 07:25N 36°51' E 025°40'0 0.0
2014-Aug-15 06:25N 36°51' E 025°40'0 0.0
2014-Aug-15 05:31N 36°51' E 025°40'0 0.0
2014-Aug-15 04:13N 36°51' E 025°40'0 0.0
2014-Aug-15 03:19N 36°51' E 025°40'0 0.0
2014-Aug-15 02:31N 36°51' E 025°40'0 0.0
2014-Aug-15 01:31N 36°51' E 025°40'0 0.0
2014-Aug-15 00:25N 36°51' E 025°40'0 0.0
2014-Aug-14 23:31N 36°51' E 025°40'0 0.0
2014-Aug-14 21:31N 36°51' E 025°40'0 0.0
2014-Aug-14 19:31N 36°51' E 025°40'0 0.0
2014-Aug-14 17:19N 36°51' E 025°40'0 0.0
2014-Aug-14 16:31N 36°51' E 025°40'0 0.0
2014-Aug-14 15:31N 36°51' E 025°40'0 0.0
2014-Aug-14 14:31N 36°51' E 025°40'0 0.0
2014-Aug-14 13:25N 36°51' E 025°40'0 0.0
2014-Aug-14 12:31N 36°51' E 025°40'0 0.0
2014-Aug-14 11:31N 36°51' E 025°40'0 0.0
2014-Aug-14 10:25N 36°51' E 025°40'0 0.0
2014-Aug-14 09:33N 36°51' E 025°40'6 6.4
2014-Aug-14 08:33N 36°54' E 025°33'  

Dump ship's entire track history